Diamond Center, Iowa
Current Conditions -  °F | °C
As of 2:35 PM on Tuesday 21 Oct 2014 (Local Time) from KCKP Reporting Station
Clear Clear  
Wind Chill: 72°   Ceiling: Unl
Heat Index: 72°   Visibility: 10mi
Dew Point: 43°   Wind: 12mph
Humidity: 35%   Direction: 170°S
Pressure: 30.05"   Gusts: NA
Location:  42.6502°N, 95.4454°W
Report Text: KCKP 211935Z AUTO 17010KT 10SM CLR 22/06 A3005 RMK AO2 T02200059
Loading
Personal Weather Stations






























Interactive Weather Map New forecast layout! Learn more

10-Day Weather Forecast

Advertisements
Track Severe Weather on mobile